createdAt,value
2018-02-25T00:01:19.232Z,5.18
2018-02-25T00:03:45.649Z,5.87
2018-02-25T00:06:11.996Z,6.05
2018-02-25T00:08:38.287Z,6.05
2018-02-25T00:11:04.658Z,5.35
2018-02-25T00:13:31.084Z,4.97
2018-02-25T00:15:57.380Z,5.93
2018-02-25T00:18:23.636Z,5.82
2018-02-25T00:20:50.055Z,5.43
2018-02-25T00:23:16.468Z,5.25
2018-02-25T00:25:42.737Z,6.18
2018-02-25T00:28:09.173Z,6.20
2018-02-25T00:30:35.492Z,5.78
2018-02-25T00:33:01.748Z,6.03
2018-02-25T00:35:28.027Z,6.05
2018-02-25T00:37:54.321Z,6.50
2018-02-25T00:40:20.717Z,5.70
2018-02-25T00:42:47.223Z,6.12
2018-02-25T00:45:13.637Z,5.50
2018-02-25T00:47:39.952Z,5.37
2018-02-25T00:50:06.210Z,5.93
2018-02-25T00:52:32.522Z,5.70
2018-02-25T00:54:58.819Z,6.00
2018-02-25T00:57:25.185Z,5.55
2018-02-25T00:59:51.516Z,5.80
2018-02-25T01:02:17.904Z,6.90
2018-02-25T01:04:44.211Z,6.55
2018-02-25T01:07:10.546Z,6.87
2018-02-25T01:09:36.851Z,5.70
2018-02-25T01:12:03.204Z,5.55
2018-02-25T01:14:29.501Z,5.40
2018-02-25T01:16:55.785Z,5.50
2018-02-25T01:19:22.415Z,5.47
2018-02-25T01:21:48.658Z,5.57
2018-02-25T01:24:15.012Z,6.20
2018-02-25T01:26:41.419Z,5.05
2018-02-25T01:29:07.935Z,5.85
2018-02-25T01:31:34.341Z,5.68
2018-02-25T01:34:00.684Z,6.15
2018-02-25T01:36:27.001Z,4.85
2018-02-25T01:38:53.342Z,5.25
2018-02-25T01:41:19.817Z,5.03
2018-02-25T01:43:46.169Z,6.22
2018-02-25T01:46:12.530Z,5.10
2018-02-25T01:48:38.920Z,5.62
2018-02-25T01:51:05.337Z,4.93
2018-02-25T01:53:31.650Z,5.35
2018-02-25T01:55:57.813Z,5.35
2018-02-25T01:58:24.277Z,5.90
2018-02-25T02:00:50.573Z,5.70
2018-02-25T02:03:17.090Z,5.07
2018-02-25T02:05:43.336Z,5.15
2018-02-25T02:08:09.575Z,4.68
2018-02-25T02:10:36.080Z,5.10
2018-02-25T02:13:02.509Z,4.78
2018-02-25T02:15:28.735Z,4.87
2018-02-25T02:17:55.037Z,5.07
2018-02-25T02:20:21.338Z,4.78
2018-02-25T02:22:47.836Z,5.05
2018-02-25T02:25:14.179Z,4.62
2018-02-25T02:27:40.486Z,5.12
2018-02-25T02:30:06.937Z,5.05
2018-02-25T02:32:33.317Z,4.93
2018-02-25T02:34:59.610Z,5.72
2018-02-25T02:37:25.885Z,4.93
2018-02-25T02:39:52.280Z,5.05
2018-02-25T02:42:18.695Z,4.87
2018-02-25T02:44:45.124Z,6.30
2018-02-25T02:47:11.524Z,6.10
2018-02-25T02:49:37.906Z,5.60
2018-02-25T02:52:04.276Z,6.82
2018-02-25T02:54:30.698Z,5.62
2018-02-25T02:56:57.002Z,5.70
2018-02-25T02:59:23.430Z,5.80
2018-02-25T03:01:49.829Z,5.65
2018-02-25T03:04:16.186Z,6.37
2018-02-25T03:06:42.546Z,5.35
2018-02-25T03:09:08.960Z,5.70
2018-02-25T03:11:35.265Z,7.07
2018-02-25T03:14:01.564Z,6.57
2018-02-25T03:16:28.009Z,7.45
2018-02-25T03:18:54.233Z,7.07
2018-02-25T03:21:20.550Z,6.70
2018-02-25T03:23:46.948Z,6.80
2018-02-25T03:26:13.247Z,5.78
2018-02-25T03:28:39.461Z,6.93
2018-02-25T03:31:05.825Z,5.85
2018-02-25T03:33:32.110Z,6.32
2018-02-25T03:35:58.379Z,7.85
2018-02-25T03:38:24.677Z,7.10
2018-02-25T03:40:51.033Z,7.30
2018-02-25T03:43:17.489Z,6.45
2018-02-25T03:45:43.796Z,7.70
2018-02-25T03:48:10.240Z,8.13
2018-02-25T03:50:36.631Z,6.75
2018-02-25T03:53:03.042Z,8.35
2018-02-25T03:55:29.315Z,7.30
2018-02-25T03:57:55.611Z,7.57
2018-02-25T04:00:22.064Z,7.78
2018-02-25T04:02:49.389Z,6.05
2018-02-25T04:05:15.704Z,7.82
2018-02-25T04:07:41.979Z,7.15
2018-02-25T04:10:08.297Z,7.20
2018-02-25T04:12:34.609Z,7.50
2018-02-25T04:15:00.936Z,7.45
2018-02-25T04:17:27.208Z,7.37
2018-02-25T04:19:53.579Z,8.60
2018-02-25T04:22:20.004Z,7.28
2018-02-25T04:24:46.460Z,6.60
2018-02-25T04:27:12.791Z,6.30
2018-02-25T04:29:39.160Z,7.97
2018-02-25T04:32:05.623Z,6.70
2018-02-25T04:34:32.003Z,6.60
2018-02-25T04:36:58.236Z,8.27
2018-02-25T04:39:24.674Z,7.40
2018-02-25T04:41:50.989Z,7.82
2018-02-25T04:44:17.572Z,6.43
2018-02-25T04:46:43.894Z,7.45
2018-02-25T04:49:10.275Z,6.95
2018-02-25T04:51:36.571Z,6.37
2018-02-25T04:54:02.852Z,7.32
2018-02-25T04:56:29.136Z,8.52
2018-02-25T04:58:55.505Z,7.22
2018-02-25T05:01:21.801Z,9.15
2018-02-25T05:03:48.030Z,8.85
2018-02-25T05:06:14.407Z,8.35
2018-02-25T05:08:40.780Z,8.65
2018-02-25T05:11:07.069Z,7.25
2018-02-25T05:13:33.387Z,7.95
2018-02-25T05:15:59.624Z,8.93
2018-02-25T05:18:25.863Z,6.90
2018-02-25T05:20:52.195Z,8.48
2018-02-25T05:23:18.478Z,7.75
2018-02-25T05:25:44.789Z,9.55
2018-02-25T05:28:11.112Z,8.15
2018-02-25T05:30:37.649Z,7.55
2018-02-25T05:33:04.094Z,8.60
2018-02-25T05:35:30.394Z,8.05
2018-02-25T05:37:56.769Z,6.68
2018-02-25T05:40:23.013Z,8.73
2018-02-25T05:42:49.502Z,7.12
2018-02-25T05:45:15.844Z,8.45
2018-02-25T05:47:42.124Z,7.85
2018-02-25T05:50:08.459Z,7.55
2018-02-25T05:52:34.957Z,6.68
2018-02-25T05:55:01.209Z,21.42
2018-02-25T05:57:27.494Z,9.38
2018-02-25T05:59:53.996Z,8.40
2018-02-25T06:02:20.330Z,6.97
2018-02-25T06:04:46.813Z,8.50
2018-02-25T06:07:13.128Z,8.23
2018-02-25T06:09:39.586Z,6.60
2018-02-25T06:12:06.047Z,7.93
2018-02-25T06:14:32.735Z,7.95
2018-02-25T06:16:59.015Z,6.70
2018-02-25T06:19:25.541Z,7.00
2018-02-25T06:21:51.967Z,8.13
2018-02-25T06:24:18.248Z,7.75
2018-02-25T06:26:44.652Z,6.90
2018-02-25T06:29:11.154Z,6.05
2018-02-25T06:31:37.435Z,6.70
2018-02-25T06:34:03.750Z,6.53
2018-02-25T06:36:30.010Z,7.75
2018-02-25T06:38:56.297Z,7.93
2018-02-25T06:41:22.492Z,7.20
2018-02-25T06:43:48.768Z,6.00
2018-02-25T06:46:15.031Z,6.57
2018-02-25T06:48:41.264Z,7.53
2018-02-25T06:51:07.506Z,7.03
2018-02-25T06:53:33.778Z,7.05
2018-02-25T06:56:00.040Z,7.95
2018-02-25T06:58:26.562Z,7.40
2018-02-25T07:00:52.834Z,6.87
2018-02-25T07:03:19.183Z,7.30
2018-02-25T07:05:45.462Z,6.78
2018-02-25T07:08:11.705Z,7.68
2018-02-25T07:10:38.933Z,8.43
2018-02-25T07:13:05.189Z,7.70
2018-02-25T07:15:31.412Z,8.27
2018-02-25T07:17:57.773Z,8.70
2018-02-25T07:20:23.974Z,8.18
2018-02-25T07:22:50.273Z,9.85
2018-02-25T07:25:16.753Z,10.70
2018-02-25T07:27:43.094Z,9.10
2018-02-25T07:30:09.316Z,9.10
2018-02-25T07:32:35.566Z,8.38
2018-02-25T07:35:01.846Z,8.65
2018-02-25T07:37:28.157Z,9.40
2018-02-25T07:39:54.568Z,8.27
2018-02-25T07:42:20.921Z,9.70
2018-02-25T07:44:47.263Z,8.80
2018-02-25T07:47:13.549Z,9.23
2018-02-25T07:49:39.853Z,9.05
2018-02-25T07:52:06.156Z,9.40
2018-02-25T07:54:32.438Z,9.27
2018-02-25T07:56:58.874Z,10.25
2018-02-25T07:59:25.445Z,9.60
2018-02-25T08:01:51.713Z,10.55
2018-02-25T08:04:17.982Z,10.57
2018-02-25T08:06:44.232Z,11.70
2018-02-25T08:09:10.563Z,11.38
2018-02-25T08:11:37.054Z,10.67
2018-02-25T08:14:03.421Z,11.00
2018-02-25T08:16:31.354Z,11.13
2018-02-25T08:18:57.615Z,10.43
2018-02-25T08:21:23.884Z,10.07
2018-02-25T08:23:50.217Z,11.03
2018-02-25T08:26:16.541Z,10.37
2018-02-25T08:28:42.897Z,11.10
2018-02-25T08:31:09.168Z,10.40
2018-02-25T08:33:35.489Z,10.40
2018-02-25T08:36:01.795Z,10.63
2018-02-25T08:38:28.033Z,11.47
2018-02-25T08:40:54.408Z,10.90
2018-02-25T08:43:20.785Z,11.33
2018-02-25T08:45:47.166Z,10.40
2018-02-25T08:48:13.767Z,11.53
2018-02-25T08:50:39.967Z,11.50
2018-02-25T08:53:06.212Z,12.37
2018-02-25T08:55:32.581Z,12.70
2018-02-25T08:57:58.911Z,12.10
2018-02-25T09:00:25.179Z,13.00
2018-02-25T09:02:51.660Z,12.53
2018-02-25T09:05:17.924Z,12.63
2018-02-25T09:07:44.310Z,12.03
2018-02-25T09:10:10.658Z,12.57
2018-02-25T09:12:36.933Z,12.67
2018-02-25T09:15:03.309Z,12.47
2018-02-25T09:17:29.564Z,12.33
2018-02-25T09:19:55.929Z,12.57
2018-02-25T09:22:22.252Z,13.03
2018-02-25T09:24:48.506Z,14.33
2018-02-25T09:27:14.964Z,14.63
2018-02-25T09:29:41.375Z,12.27
2018-02-25T09:32:07.624Z,13.73
2018-02-25T09:34:34.029Z,12.20
2018-02-25T09:37:00.336Z,12.83
2018-02-25T09:39:26.575Z,13.10
2018-02-25T09:41:52.892Z,13.03
2018-02-25T09:44:19.215Z,12.00
2018-02-25T09:46:45.456Z,12.27
2018-02-25T09:49:11.944Z,12.87
2018-02-25T09:51:38.139Z,13.73
2018-02-25T09:54:04.408Z,12.43
2018-02-25T09:56:30.734Z,11.23
2018-02-25T09:58:57.099Z,12.87
2018-02-25T10:01:23.314Z,12.30
2018-02-25T10:03:49.672Z,11.43
2018-02-25T10:06:15.923Z,11.87
2018-02-25T10:08:42.195Z,10.60
2018-02-25T10:11:08.497Z,12.50
2018-02-25T10:13:34.873Z,12.83
2018-02-25T10:16:01.285Z,11.67
2018-02-25T10:18:27.632Z,12.40
2018-02-25T10:20:54.685Z,12.53
2018-02-25T10:23:22.544Z,12.73
2018-02-25T10:25:48.956Z,12.93
2018-02-25T10:28:15.438Z,12.10
2018-02-25T10:30:41.592Z,12.13
2018-02-25T10:33:08.168Z,12.13
2018-02-25T10:35:34.357Z,11.63
2018-02-25T10:38:00.742Z,11.77
2018-02-25T10:40:27.018Z,12.07
2018-02-25T10:42:53.357Z,11.90
2018-02-25T10:45:19.732Z,12.07
2018-02-25T10:47:46.047Z,11.83
2018-02-25T10:50:12.453Z,12.60
2018-02-25T10:52:38.830Z,11.80
2018-02-25T10:55:05.207Z,12.10
2018-02-25T10:57:31.511Z,11.80
2018-02-25T10:59:57.739Z,12.27
2018-02-25T11:02:23.913Z,12.13
2018-02-25T11:04:50.299Z,11.23
2018-02-25T11:07:16.733Z,12.93
2018-02-25T11:09:43.052Z,11.93
2018-02-25T11:12:09.260Z,12.70
2018-02-25T11:14:35.777Z,11.83
2018-02-25T11:17:02.018Z,12.40
2018-02-25T11:19:28.237Z,12.60
2018-02-25T11:21:54.565Z,12.40
2018-02-25T11:24:20.920Z,12.00
2018-02-25T11:26:47.363Z,12.30
2018-02-25T11:29:13.629Z,11.90
2018-02-25T11:31:40.110Z,10.60
2018-02-25T11:34:06.468Z,12.23
2018-02-25T11:36:32.671Z,12.47
2018-02-25T11:38:58.938Z,11.80
2018-02-25T11:41:25.263Z,11.80
2018-02-25T11:43:51.540Z,11.50
2018-02-25T11:46:17.784Z,12.70
2018-02-25T11:48:44.100Z,12.17
2018-02-25T11:51:10.341Z,12.33
2018-02-25T11:53:36.627Z,15.70
2018-02-25T11:56:02.992Z,15.03
2018-02-25T11:58:29.304Z,13.23
2018-02-25T12:00:55.531Z,12.13
2018-02-25T12:03:21.932Z,12.87
2018-02-25T12:05:48.214Z,11.50
2018-02-25T12:08:14.634Z,11.93
2018-02-25T12:10:41.207Z,11.80
2018-02-25T12:13:07.576Z,12.93
2018-02-25T12:15:33.970Z,13.10
2018-02-25T12:18:00.418Z,13.43
2018-02-25T12:20:26.792Z,13.60
2018-02-25T12:22:53.069Z,13.37
2018-02-25T12:25:19.389Z,13.50
2018-02-25T12:27:45.822Z,14.23
2018-02-25T12:30:11.997Z,14.93
2018-02-25T12:32:38.373Z,14.43
2018-02-25T12:35:04.625Z,13.50
2018-02-25T12:37:31.014Z,13.13
2018-02-25T12:39:57.368Z,12.70
2018-02-25T12:42:23.981Z,13.13
2018-02-25T12:44:50.654Z,14.00
2018-02-25T12:47:16.878Z,13.17
2018-02-25T12:49:43.149Z,12.70
2018-02-25T12:52:09.508Z,13.23
2018-02-25T12:54:35.804Z,11.57
2018-02-25T12:57:02.190Z,12.10
2018-02-25T12:59:37.535Z,10.90
2018-02-25T13:02:04.433Z,11.17
2018-02-25T13:04:30.798Z,10.33
2018-02-25T13:06:57.083Z,10.93
2018-02-25T13:09:23.400Z,11.30
2018-02-25T13:11:49.781Z,10.63
2018-02-25T13:14:15.990Z,10.77
2018-02-25T13:16:42.442Z,10.50
2018-02-25T13:19:08.753Z,9.60
2018-02-25T13:21:34.972Z,9.00
2018-02-25T13:24:01.393Z,9.70
2018-02-25T13:26:27.953Z,9.23
2018-02-25T13:28:54.221Z,9.27
2018-02-25T13:31:20.434Z,10.03
2018-02-25T13:33:46.738Z,9.02
2018-02-25T13:36:13.044Z,8.32
2018-02-25T13:38:39.421Z,8.38
2018-02-25T13:41:07.700Z,8.23
2018-02-25T13:43:34.039Z,8.18
2018-02-25T13:46:00.459Z,7.47
2018-02-25T13:48:26.777Z,7.97
2018-02-25T13:50:53.227Z,7.32
2018-02-25T13:53:19.514Z,7.95
2018-02-25T13:55:45.788Z,7.45
2018-02-25T13:58:12.175Z,7.57
2018-02-25T14:00:38.351Z,8.00
2018-02-25T14:03:04.578Z,7.65
2018-02-25T14:05:30.832Z,8.27
2018-02-25T14:07:57.045Z,8.13
2018-02-25T14:10:23.349Z,7.78
2018-02-25T14:12:49.719Z,7.93
2018-02-25T14:15:15.968Z,7.82
2018-02-25T14:17:42.530Z,8.55
2018-02-25T14:20:08.837Z,7.40
2018-02-25T14:22:35.051Z,6.68
2018-02-25T14:25:01.331Z,6.62
2018-02-25T14:27:27.582Z,6.87
2018-02-25T14:29:53.991Z,6.35
2018-02-25T14:32:20.250Z,6.78
2018-02-25T14:34:46.709Z,6.10
2018-02-25T14:37:13.180Z,6.43
2018-02-25T14:39:39.391Z,6.43
2018-02-25T14:42:05.648Z,6.72
2018-02-25T14:44:31.900Z,6.90
2018-02-25T14:46:58.200Z,7.00
2018-02-25T14:49:24.444Z,8.45
2018-02-25T14:51:50.641Z,7.60
2018-02-25T14:54:16.834Z,7.35
2018-02-25T14:56:43.245Z,6.78
2018-02-25T14:59:09.524Z,7.07
2018-02-25T15:01:36.033Z,7.28
2018-02-25T15:04:02.273Z,7.03
2018-02-25T15:06:28.514Z,6.65
2018-02-25T15:08:54.825Z,6.28
2018-02-25T15:11:21.170Z,6.57
2018-02-25T15:13:47.408Z,6.90
2018-02-25T15:16:13.708Z,7.55
2018-02-25T15:18:40.047Z,7.53
2018-02-25T15:21:06.364Z,6.35
2018-02-25T15:23:32.644Z,7.12
2018-02-25T15:25:58.868Z,6.65
2018-02-25T15:28:25.164Z,6.85
2018-02-25T15:30:51.444Z,6.15
2018-02-25T15:33:17.852Z,5.72
2018-02-25T15:35:44.138Z,5.85
2018-02-25T15:38:10.454Z,6.32
2018-02-25T15:40:36.785Z,6.85
2018-02-25T15:43:03.126Z,5.72
2018-02-25T15:45:29.642Z,6.05
2018-02-25T15:47:56.122Z,5.45
2018-02-25T15:50:22.394Z,5.55
2018-02-25T15:52:48.684Z,5.82
2018-02-25T15:55:17.214Z,6.62
2018-02-25T15:57:43.764Z,6.47
2018-02-25T16:00:10.053Z,6.28
2018-02-25T16:02:36.312Z,7.45
2018-02-25T16:05:04.019Z,6.50
2018-02-25T16:07:30.456Z,6.75
2018-02-25T16:09:56.753Z,5.87
2018-02-25T16:12:23.032Z,6.47
2018-02-25T16:14:49.278Z,5.22
2018-02-25T16:17:15.645Z,6.10
2018-02-25T16:19:42.088Z,6.00
2018-02-25T16:22:08.327Z,5.93
2018-02-25T16:24:34.659Z,6.12
2018-02-25T16:27:01.279Z,5.60
2018-02-25T16:29:27.614Z,6.10
2018-02-25T16:31:54.001Z,6.68
2018-02-25T16:34:20.341Z,5.87
2018-02-25T16:36:46.626Z,5.93
2018-02-25T16:39:15.004Z,5.60
2018-02-25T16:41:41.335Z,6.12
2018-02-25T16:44:07.573Z,6.00
2018-02-25T16:46:34.827Z,5.60
2018-02-25T16:49:01.775Z,6.40
2018-02-25T16:51:28.159Z,5.55
2018-02-25T16:53:54.722Z,6.07
2018-02-25T16:56:23.232Z,6.72
2018-02-25T16:58:49.908Z,6.78
2018-02-25T17:01:16.204Z,7.30
2018-02-25T17:03:42.652Z,5.00
2018-02-25T17:06:08.990Z,5.53
2018-02-25T17:08:35.272Z,7.10
2018-02-25T17:11:01.598Z,6.35
2018-02-25T17:13:27.869Z,6.07
2018-02-25T17:15:54.369Z,8.15
2018-02-25T17:18:23.481Z,6.55
2018-02-25T17:20:51.846Z,7.00
2018-02-25T17:23:18.363Z,7.35
2018-02-25T17:25:46.310Z,6.72
2018-02-25T17:28:12.978Z,7.62
2018-02-25T17:30:39.305Z,7.32
2018-02-25T17:33:06.701Z,6.62
2018-02-25T17:35:32.966Z,5.82
2018-02-25T17:37:59.292Z,7.45
2018-02-25T17:40:25.549Z,6.82
2018-02-25T17:42:52.263Z,6.25
2018-02-25T17:45:18.679Z,8.10
2018-02-25T17:47:44.972Z,7.60
2018-02-25T17:50:11.262Z,7.25
2018-02-25T17:52:37.500Z,7.37
2018-02-25T17:55:03.845Z,7.47
2018-02-25T17:57:30.247Z,6.43
2018-02-25T17:59:56.465Z,6.53
2018-02-25T18:02:22.949Z,7.07
2018-02-25T18:04:49.190Z,7.57
2018-02-25T18:07:15.609Z,7.87
2018-02-25T18:09:41.869Z,8.15
2018-02-25T18:12:08.118Z,8.63
2018-02-25T18:14:34.439Z,8.40
2018-02-25T18:17:00.818Z,8.20
2018-02-25T18:19:27.101Z,7.03
2018-02-25T18:21:53.433Z,7.15
2018-02-25T18:24:19.704Z,8.25
2018-02-25T18:26:45.943Z,7.47
2018-02-25T18:29:12.307Z,11.40
2018-02-25T18:31:38.531Z,29.45
2018-02-25T18:34:04.777Z,9.60
2018-02-25T18:36:31.141Z,9.75
2018-02-25T18:38:57.416Z,8.85
2018-02-25T18:41:23.664Z,7.62
2018-02-25T18:43:50.019Z,8.80
2018-02-25T18:46:16.284Z,6.90
2018-02-25T18:48:42.510Z,9.07
2018-02-25T18:51:08.750Z,9.13
2018-02-25T18:53:35.031Z,7.93
2018-02-25T18:56:01.462Z,8.90
2018-02-25T18:58:27.746Z,8.90
2018-02-25T19:00:54.026Z,10.00
2018-02-25T19:03:20.334Z,8.40
2018-02-25T19:05:46.573Z,8.75
2018-02-25T19:08:12.778Z,8.40
2018-02-25T19:10:39.066Z,8.07
2018-02-25T19:13:05.241Z,8.68
2018-02-25T19:15:31.728Z,8.30
2018-02-25T19:17:57.952Z,9.55
2018-02-25T19:20:24.300Z,7.43
2018-02-25T19:22:50.749Z,8.68
2018-02-25T19:25:17.076Z,8.43
2018-02-25T19:27:43.571Z,8.50
2018-02-25T19:30:09.949Z,8.40
2018-02-25T19:32:36.371Z,9.98
2018-02-25T19:35:02.780Z,8.82
2018-02-25T19:37:35.149Z,7.85
2018-02-25T19:40:02.535Z,7.87
2018-02-25T19:42:28.995Z,11.18
2018-02-25T19:44:55.415Z,10.07
2018-02-25T19:47:21.958Z,8.15
2018-02-25T19:49:48.366Z,9.45
2018-02-25T19:52:14.902Z,10.88
2018-02-25T19:54:41.157Z,8.50
2018-02-25T19:57:07.431Z,9.15
2018-02-25T19:59:33.688Z,9.13
2018-02-25T20:01:59.993Z,8.50
2018-02-25T20:04:26.349Z,8.30
2018-02-25T20:06:52.548Z,9.30
2018-02-25T20:09:18.919Z,9.48
2018-02-25T20:11:45.198Z,8.40
2018-02-25T20:14:11.385Z,8.48
2018-02-25T20:16:37.701Z,9.65
2018-02-25T20:19:04.115Z,9.35
2018-02-25T20:21:30.318Z,8.65
2018-02-25T20:23:56.548Z,8.88
2018-02-25T20:26:22.758Z,9.00
2018-02-25T20:28:48.997Z,8.55
2018-02-25T20:31:15.254Z,8.75
2018-02-25T20:33:41.531Z,9.38
2018-02-25T20:36:07.727Z,9.13
2018-02-25T20:38:33.872Z,8.93
2018-02-25T20:41:00.175Z,8.18
2018-02-25T20:43:26.388Z,8.38
2018-02-25T20:45:52.702Z,8.30
2018-02-25T20:48:19.004Z,9.30
2018-02-25T20:50:45.329Z,9.38
2018-02-25T20:53:11.559Z,8.15
2018-02-25T20:55:37.795Z,9.38
2018-02-25T20:58:04.027Z,9.63
2018-02-25T21:00:30.557Z,8.18
2018-02-25T21:02:56.874Z,8.88
2018-02-25T21:05:23.220Z,9.15
2018-02-25T21:07:49.590Z,9.43
2018-02-25T21:10:16.014Z,8.25
2018-02-25T21:12:42.368Z,8.95
2018-02-25T21:15:08.954Z,9.27
2018-02-25T21:17:35.296Z,9.00
2018-02-25T21:20:01.774Z,7.78
2018-02-25T21:22:28.144Z,8.23
2018-02-25T21:24:54.426Z,8.55
2018-02-25T21:27:20.804Z,9.00
2018-02-25T21:29:47.129Z,9.35
2018-02-25T21:32:13.579Z,8.70
2018-02-25T21:34:39.920Z,10.50
2018-02-25T21:37:06.138Z,8.55
2018-02-25T21:39:32.614Z,7.40
2018-02-25T21:41:59.136Z,10.30
2018-02-25T21:44:25.439Z,9.40
2018-02-25T21:46:51.848Z,9.90
2018-02-25T21:49:18.045Z,9.43
2018-02-25T21:51:44.346Z,8.02
2018-02-25T21:54:17.860Z,8.00
2018-02-25T21:56:50.123Z,9.60
2018-02-25T21:59:22.440Z,9.30
2018-02-25T22:01:54.771Z,8.07
2018-02-25T22:04:21.121Z,7.80
2018-02-25T22:06:47.451Z,8.60
2018-02-25T22:09:13.714Z,9.38
2018-02-25T22:11:39.960Z,9.18
2018-02-25T22:14:06.297Z,8.13
2018-02-25T22:16:32.701Z,7.85
2018-02-25T22:18:59.000Z,8.00
2018-02-25T22:21:25.413Z,7.22
2018-02-25T22:23:51.764Z,7.62
2018-02-25T22:26:18.000Z,8.52
2018-02-25T22:28:44.306Z,8.48
2018-02-25T22:31:10.595Z,8.13
2018-02-25T22:33:36.862Z,9.38
2018-02-25T22:36:03.208Z,8.48
2018-02-25T22:38:29.488Z,8.90
2018-02-25T22:40:55.923Z,7.07
2018-02-25T22:43:22.249Z,9.48
2018-02-25T22:45:48.456Z,6.62
2018-02-25T22:48:14.760Z,8.07
2018-02-25T22:50:41.056Z,8.95
2018-02-25T22:53:07.585Z,8.13
2018-02-25T22:55:33.965Z,6.70
2018-02-25T22:58:00.447Z,8.15
2018-02-25T23:00:26.967Z,8.95
2018-02-25T23:02:53.343Z,8.10
2018-02-25T23:05:19.731Z,8.02
2018-02-25T23:07:46.626Z,6.60
2018-02-25T23:10:12.934Z,9.15
2018-02-25T23:12:39.259Z,8.50
2018-02-25T23:15:05.630Z,7.87
2018-02-25T23:17:32.003Z,8.13
2018-02-25T23:19:58.288Z,9.32
2018-02-25T23:22:24.542Z,6.62
2018-02-25T23:24:50.732Z,8.13
2018-02-25T23:27:17.096Z,8.35
2018-02-25T23:29:43.359Z,8.63
2018-02-25T23:32:09.728Z,8.95
2018-02-25T23:34:36.058Z,7.95
2018-02-25T23:37:02.537Z,8.13
2018-02-25T23:39:28.916Z,8.50
2018-02-25T23:41:55.131Z,7.80
2018-02-25T23:44:21.458Z,8.00
2018-02-25T23:46:47.753Z,8.25
2018-02-25T23:49:14.181Z,8.27
2018-02-25T23:51:40.470Z,9.13
2018-02-25T23:54:06.855Z,10.25
2018-02-25T23:56:33.321Z,8.48
2018-02-25T23:58:59.587Z,9.80
